sensor_id;sensor_type;location;lat;lon;timestamp;temperature;humidity
72440;DHT22;60446;50.752;4.352;2023-07-22T00:01:43;14.60;70.20
72440;DHT22;60446;50.752;4.352;2023-07-22T00:04:10;14.60;70.60
72440;DHT22;60446;50.752;4.352;2023-07-22T00:06:37;14.60;70.40
72440;DHT22;60446;50.752;4.352;2023-07-22T00:09:04;14.50;70.30
72440;DHT22;60446;50.752;4.352;2023-07-22T00:11:32;14.50;70.50
72440;DHT22;60446;50.752;4.352;2023-07-22T00:13:59;14.50;70.60
72440;DHT22;60446;50.752;4.352;2023-07-22T00:16:26;14.40;70.80
72440;DHT22;60446;50.752;4.352;2023-07-22T00:18:56;14.40;70.60
72440;DHT22;60446;50.752;4.352;2023-07-22T00:21:23;14.40;70.70
72440;DHT22;60446;50.752;4.352;2023-07-22T00:23:50;14.30;70.80
72440;DHT22;60446;50.752;4.352;2023-07-22T00:26:18;14.20;71.00
72440;DHT22;60446;50.752;4.352;2023-07-22T00:28:45;14.20;71.20
72440;DHT22;60446;50.752;4.352;2023-07-22T00:31:12;14.10;71.20
72440;DHT22;60446;50.752;4.352;2023-07-22T00:33:40;14.10;71.20
72440;DHT22;60446;50.752;4.352;2023-07-22T00:36:07;14.10;71.30
72440;DHT22;60446;50.752;4.352;2023-07-22T00:38:34;14.00;71.30
72440;DHT22;60446;50.752;4.352;2023-07-22T00:41:02;13.90;72.00
72440;DHT22;60446;50.752;4.352;2023-07-22T00:43:31;13.90;71.60
72440;DHT22;60446;50.752;4.352;2023-07-22T00:45:59;13.90;71.60
72440;DHT22;60446;50.752;4.352;2023-07-22T00:48:27;13.80;71.80
72440;DHT22;60446;50.752;4.352;2023-07-22T00:50:54;13.80;72.50
72440;DHT22;60446;50.752;4.352;2023-07-22T00:53:22;13.70;72.50
72440;DHT22;60446;50.752;4.352;2023-07-22T00:55:49;13.70;72.70
72440;DHT22;60446;50.752;4.352;2023-07-22T00:58:16;13.70;72.60
72440;DHT22;60446;50.752;4.352;2023-07-22T01:00:43;13.70;72.30
72440;DHT22;60446;50.752;4.352;2023-07-22T01:03:11;13.70;72.20
72440;DHT22;60446;50.752;4.352;2023-07-22T01:05:39;13.60;72.40
72440;DHT22;60446;50.752;4.352;2023-07-22T01:08:06;13.60;72.60
72440;DHT22;60446;50.752;4.352;2023-07-22T01:10:33;13.60;72.50
72440;DHT22;60446;50.752;4.352;2023-07-22T01:13:00;13.60;72.40
72440;DHT22;60446;50.752;4.352;2023-07-22T01:15:28;13.50;72.50
72440;DHT22;60446;50.752;4.352;2023-07-22T01:17:56;13.50;72.50
72440;DHT22;60446;50.752;4.352;2023-07-22T01:20:31;13.50;72.50
72440;DHT22;60446;50.752;4.352;2023-07-22T01:22:59;13.50;72.50
72440;DHT22;60446;50.752;4.352;2023-07-22T01:25:27;13.40;73.10
72440;DHT22;60446;50.752;4.352;2023-07-22T01:27:56;13.40;73.20
72440;DHT22;60446;50.752;4.352;2023-07-22T01:30:24;13.40;73.00
72440;DHT22;60446;50.752;4.352;2023-07-22T01:32:52;13.30;73.30
72440;DHT22;60446;50.752;4.352;2023-07-22T01:35:19;13.30;73.40
72440;DHT22;60446;50.752;4.352;2023-07-22T01:37:47;13.30;73.30
72440;DHT22;60446;50.752;4.352;2023-07-22T01:40:14;13.30;73.10
72440;DHT22;60446;50.752;4.352;2023-07-22T01:42:42;13.30;73.30
72440;DHT22;60446;50.752;4.352;2023-07-22T01:45:10;13.20;73.10
72440;DHT22;60446;50.752;4.352;2023-07-22T01:47:38;13.20;73.30
72440;DHT22;60446;50.752;4.352;2023-07-22T01:50:08;13.20;73.50
72440;DHT22;60446;50.752;4.352;2023-07-22T01:52:36;13.10;73.50
72440;DHT22;60446;50.752;4.352;2023-07-22T01:55:04;13.20;73.30
72440;DHT22;60446;50.752;4.352;2023-07-22T01:57:33;13.20;73.50
72440;DHT22;60446;50.752;4.352;2023-07-22T02:00:01;13.20;73.30
72440;DHT22;60446;50.752;4.352;2023-07-22T02:02:38;13.10;73.30
72440;DHT22;60446;50.752;4.352;2023-07-22T02:05:07;13.20;73.40
72440;DHT22;60446;50.752;4.352;2023-07-22T02:07:37;13.10;73.50
72440;DHT22;60446;50.752;4.352;2023-07-22T02:10:05;13.10;73.80
72440;DHT22;60446;50.752;4.352;2023-07-22T02:12:33;13.10;73.80
72440;DHT22;60446;50.752;4.352;2023-07-22T02:15:00;13.10;73.40
72440;DHT22;60446;50.752;4.352;2023-07-22T02:17:29;13.10;73.60
72440;DHT22;60446;50.752;4.352;2023-07-22T02:19:57;13.10;73.70
72440;DHT22;60446;50.752;4.352;2023-07-22T02:22:25;13.10;73.60
72440;DHT22;60446;50.752;4.352;2023-07-22T02:24:52;13.10;73.80
72440;DHT22;60446;50.752;4.352;2023-07-22T02:27:20;13.10;73.80
72440;DHT22;60446;50.752;4.352;2023-07-22T02:29:47;13.10;73.70
72440;DHT22;60446;50.752;4.352;2023-07-22T02:32:14;13.00;73.70
72440;DHT22;60446;50.752;4.352;2023-07-22T02:34:41;13.00;73.90
72440;DHT22;60446;50.752;4.352;2023-07-22T02:37:08;13.00;74.10
72440;DHT22;60446;50.752;4.352;2023-07-22T02:39:35;13.00;74.40
72440;DHT22;60446;50.752;4.352;2023-07-22T02:42:04;13.00;74.20
72440;DHT22;60446;50.752;4.352;2023-07-22T02:44:31;13.00;74.40
72440;DHT22;60446;50.752;4.352;2023-07-22T02:46:58;12.90;74.50
72440;DHT22;60446;50.752;4.352;2023-07-22T02:49:25;12.90;74.90
72440;DHT22;60446;50.752;4.352;2023-07-22T02:51:52;12.90;74.90
72440;DHT22;60446;50.752;4.352;2023-07-22T02:54:20;12.90;74.60
72440;DHT22;60446;50.752;4.352;2023-07-22T02:56:47;12.90;74.80
72440;DHT22;60446;50.752;4.352;2023-07-22T02:59:14;12.90;74.90
72440;DHT22;60446;50.752;4.352;2023-07-22T03:01:41;12.90;74.70
72440;DHT22;60446;50.752;4.352;2023-07-22T03:04:09;12.80;74.70
72440;DHT22;60446;50.752;4.352;2023-07-22T03:06:36;12.80;74.80
72440;DHT22;60446;50.752;4.352;2023-07-22T03:09:03;12.80;75.00
72440;DHT22;60446;50.752;4.352;2023-07-22T03:11:31;12.80;75.10
72440;DHT22;60446;50.752;4.352;2023-07-22T03:13:58;12.70;75.00
72440;DHT22;60446;50.752;4.352;2023-07-22T03:16:26;12.70;75.10
72440;DHT22;60446;50.752;4.352;2023-07-22T03:18:54;12.70;75.40
72440;DHT22;60446;50.752;4.352;2023-07-22T03:21:21;12.70;75.40
72440;DHT22;60446;50.752;4.352;2023-07-22T03:23:48;12.70;75.70
72440;DHT22;60446;50.752;4.352;2023-07-22T03:26:16;12.70;75.70
72440;DHT22;60446;50.752;4.352;2023-07-22T03:28:43;12.70;76.10
72440;DHT22;60446;50.752;4.352;2023-07-22T03:31:10;12.70;76.00
72440;DHT22;60446;50.752;4.352;2023-07-22T03:33:38;12.70;76.20
72440;DHT22;60446;50.752;4.352;2023-07-22T03:36:05;12.70;75.90
72440;DHT22;60446;50.752;4.352;2023-07-22T03:38:33;12.80;76.10
72440;DHT22;60446;50.752;4.352;2023-07-22T03:41:00;12.80;76.00
72440;DHT22;60446;50.752;4.352;2023-07-22T03:43:28;12.80;76.10
72440;DHT22;60446;50.752;4.352;2023-07-22T03:45:55;12.90;76.20
72440;DHT22;60446;50.752;4.352;2023-07-22T03:48:22;12.90;76.00
72440;DHT22;60446;50.752;4.352;2023-07-22T03:50:49;12.80;76.20
72440;DHT22;60446;50.752;4.352;2023-07-22T03:53:28;12.90;76.50
72440;DHT22;60446;50.752;4.352;2023-07-22T03:55:55;12.90;76.20
72440;DHT22;60446;50.752;4.352;2023-07-22T03:58:22;12.90;76.50
72440;DHT22;60446;50.752;4.352;2023-07-22T04:00:49;12.90;77.00
72440;DHT22;60446;50.752;4.352;2023-07-22T04:03:17;12.90;77.00
72440;DHT22;60446;50.752;4.352;2023-07-22T04:05:44;12.90;77.10
72440;DHT22;60446;50.752;4.352;2023-07-22T04:08:11;13.00;76.60
72440;DHT22;60446;50.752;4.352;2023-07-22T04:10:39;13.00;76.60
72440;DHT22;60446;50.752;4.352;2023-07-22T04:13:06;13.00;76.50
72440;DHT22;60446;50.752;4.352;2023-07-22T04:15:33;13.10;76.20
72440;DHT22;60446;50.752;4.352;2023-07-22T04:18:00;13.10;76.20
72440;DHT22;60446;50.752;4.352;2023-07-22T04:20:28;13.10;76.20
72440;DHT22;60446;50.752;4.352;2023-07-22T04:22:55;13.10;76.00
72440;DHT22;60446;50.752;4.352;2023-07-22T04:25:22;13.10;76.10
72440;DHT22;60446;50.752;4.352;2023-07-22T04:27:50;13.20;76.00
72440;DHT22;60446;50.752;4.352;2023-07-22T04:30:17;13.20;76.20
72440;DHT22;60446;50.752;4.352;2023-07-22T04:32:48;13.20;76.20
72440;DHT22;60446;50.752;4.352;2023-07-22T04:35:16;13.20;76.50
72440;DHT22;60446;50.752;4.352;2023-07-22T04:37:44;13.20;76.50
72440;DHT22;60446;50.752;4.352;2023-07-22T04:40:12;13.30;76.50
72440;DHT22;60446;50.752;4.352;2023-07-22T04:42:44;13.30;76.70
72440;DHT22;60446;50.752;4.352;2023-07-22T04:45:11;13.30;76.80
72440;DHT22;60446;50.752;4.352;2023-07-22T04:47:38;13.30;76.70
72440;DHT22;60446;50.752;4.352;2023-07-22T04:50:06;13.40;76.90
72440;DHT22;60446;50.752;4.352;2023-07-22T04:52:36;13.40;76.70
72440;DHT22;60446;50.752;4.352;2023-07-22T04:55:04;13.50;76.50
72440;DHT22;60446;50.752;4.352;2023-07-22T04:57:36;13.50;76.40
72440;DHT22;60446;50.752;4.352;2023-07-22T05:00:05;13.50;76.50
72440;DHT22;60446;50.752;4.352;2023-07-22T05:02:32;13.60;76.50
72440;DHT22;60446;50.752;4.352;2023-07-22T05:05:00;13.60;76.30
72440;DHT22;60446;50.752;4.352;2023-07-22T05:07:27;13.60;76.50
72440;DHT22;60446;50.752;4.352;2023-07-22T05:09:57;13.60;76.60
72440;DHT22;60446;50.752;4.352;2023-07-22T05:12:24;13.70;76.70
72440;DHT22;60446;50.752;4.352;2023-07-22T05:14:51;13.70;76.50
72440;DHT22;60446;50.752;4.352;2023-07-22T05:17:18;13.80;76.10
72440;DHT22;60446;50.752;4.352;2023-07-22T05:19:45;13.80;76.50
72440;DHT22;60446;50.752;4.352;2023-07-22T05:22:15;13.80;76.40
72440;DHT22;60446;50.752;4.352;2023-07-22T05:24:42;13.80;76.50
72440;DHT22;60446;50.752;4.352;2023-07-22T05:27:10;13.80;77.10
72440;DHT22;60446;50.752;4.352;2023-07-22T05:29:37;13.90;76.90
72440;DHT22;60446;50.752;4.352;2023-07-22T05:32:05;14.00;76.90
72440;DHT22;60446;50.752;4.352;2023-07-22T05:34:52;14.10;76.60
72440;DHT22;60446;50.752;4.352;2023-07-22T05:37:20;14.30;76.30
72440;DHT22;60446;50.752;4.352;2023-07-22T05:39:47;14.40;75.90
72440;DHT22;60446;50.752;4.352;2023-07-22T05:42:14;14.60;76.10
72440;DHT22;60446;50.752;4.352;2023-07-22T05:44:41;14.70;76.00
72440;DHT22;60446;50.752;4.352;2023-07-22T05:47:09;14.90;75.40
72440;DHT22;60446;50.752;4.352;2023-07-22T05:49:36;14.90;74.60
72440;DHT22;60446;50.752;4.352;2023-07-22T05:52:03;15.10;74.50
72440;DHT22;60446;50.752;4.352;2023-07-22T05:54:31;15.20;74.40
72440;DHT22;60446;50.752;4.352;2023-07-22T05:56:58;15.30;73.90
72440;DHT22;60446;50.752;4.352;2023-07-22T05:59:25;15.30;73.80
72440;DHT22;60446;50.752;4.352;2023-07-22T06:01:53;15.40;73.40
72440;DHT22;60446;50.752;4.352;2023-07-22T06:04:20;15.30;73.80
72440;DHT22;60446;50.752;4.352;2023-07-22T06:06:47;15.40;73.80
72440;DHT22;60446;50.752;4.352;2023-07-22T06:09:14;15.50;73.20
72440;DHT22;60446;50.752;4.352;2023-07-22T06:11:41;15.50;73.30
72440;DHT22;60446;50.752;4.352;2023-07-22T06:14:09;15.50;73.10
72440;DHT22;60446;50.752;4.352;2023-07-22T06:16:36;15.50;73.40
72440;DHT22;60446;50.752;4.352;2023-07-22T06:19:04;15.60;73.60
72440;DHT22;60446;50.752;4.352;2023-07-22T06:21:31;15.60;73.30
72440;DHT22;60446;50.752;4.352;2023-07-22T06:23:58;15.70;73.40
72440;DHT22;60446;50.752;4.352;2023-07-22T06:26:25;15.80;73.20
72440;DHT22;60446;50.752;4.352;2023-07-22T06:28:53;15.80;72.80
72440;DHT22;60446;50.752;4.352;2023-07-22T06:31:20;15.90;72.50
72440;DHT22;60446;50.752;4.352;2023-07-22T06:33:48;16.00;72.40
72440;DHT22;60446;50.752;4.352;2023-07-22T06:36:15;16.00;72.50
72440;DHT22;60446;50.752;4.352;2023-07-22T06:38:44;16.10;71.80
72440;DHT22;60446;50.752;4.352;2023-07-22T06:41:11;16.20;71.90
72440;DHT22;60446;50.752;4.352;2023-07-22T06:43:38;16.20;72.10
72440;DHT22;60446;50.752;4.352;2023-07-22T06:46:06;16.30;71.70
72440;DHT22;60446;50.752;4.352;2023-07-22T06:48:33;16.30;71.90
72440;DHT22;60446;50.752;4.352;2023-07-22T06:51:00;16.40;71.30
72440;DHT22;60446;50.752;4.352;2023-07-22T06:53:27;16.40;71.70
72440;DHT22;60446;50.752;4.352;2023-07-22T06:55:54;16.50;71.30
72440;DHT22;60446;50.752;4.352;2023-07-22T06:58:21;16.50;71.10
72440;DHT22;60446;50.752;4.352;2023-07-22T07:00:54;16.50;70.90
72440;DHT22;60446;50.752;4.352;2023-07-22T07:03:22;16.60;71.40
72440;DHT22;60446;50.752;4.352;2023-07-22T07:05:56;16.70;70.40
72440;DHT22;60446;50.752;4.352;2023-07-22T07:08:24;16.80;70.20
72440;DHT22;60446;50.752;4.352;2023-07-22T07:10:51;16.80;70.20
72440;DHT22;60446;50.752;4.352;2023-07-22T07:13:19;16.90;71.10
72440;DHT22;60446;50.752;4.352;2023-07-22T07:15:47;17.00;70.00
72440;DHT22;60446;50.752;4.352;2023-07-22T07:18:17;17.10;69.90
72440;DHT22;60446;50.752;4.352;2023-07-22T07:20:45;17.10;70.10
72440;DHT22;60446;50.752;4.352;2023-07-22T07:23:13;17.10;70.20
72440;DHT22;60446;50.752;4.352;2023-07-22T07:25:42;17.20;70.00
72440;DHT22;60446;50.752;4.352;2023-07-22T07:28:10;17.20;69.90
72440;DHT22;60446;50.752;4.352;2023-07-22T07:30:38;17.30;69.50
72440;DHT22;60446;50.752;4.352;2023-07-22T07:33:06;17.40;68.80
72440;DHT22;60446;50.752;4.352;2023-07-22T07:35:33;17.60;70.10
72440;DHT22;60446;50.752;4.352;2023-07-22T07:38:00;17.70;68.30
72440;DHT22;60446;50.752;4.352;2023-07-22T07:40:28;17.80;68.20
72440;DHT22;60446;50.752;4.352;2023-07-22T07:42:55;17.80;68.20
72440;DHT22;60446;50.752;4.352;2023-07-22T07:45:22;17.90;68.70
72440;DHT22;60446;50.752;4.352;2023-07-22T07:47:50;18.00;68.50
72440;DHT22;60446;50.752;4.352;2023-07-22T07:50:17;18.20;68.30
72440;DHT22;60446;50.752;4.352;2023-07-22T07:52:44;18.20;67.60
72440;DHT22;60446;50.752;4.352;2023-07-22T07:55:11;18.10;68.60
72440;DHT22;60446;50.752;4.352;2023-07-22T07:57:39;18.20;68.10
72440;DHT22;60446;50.752;4.352;2023-07-22T08:00:06;18.30;67.70
72440;DHT22;60446;50.752;4.352;2023-07-22T08:02:37;18.40;68.30
72440;DHT22;60446;50.752;4.352;2023-07-22T08:05:04;18.50;66.90
72440;DHT22;60446;50.752;4.352;2023-07-22T08:07:32;18.40;66.70
72440;DHT22;60446;50.752;4.352;2023-07-22T08:10:00;18.40;67.90
72440;DHT22;60446;50.752;4.352;2023-07-22T08:12:27;18.50;68.00
72440;DHT22;60446;50.752;4.352;2023-07-22T08:14:55;18.60;68.20
72440;DHT22;60446;50.752;4.352;2023-07-22T08:17:22;18.60;67.20
72440;DHT22;60446;50.752;4.352;2023-07-22T08:19:49;18.60;67.30
72440;DHT22;60446;50.752;4.352;2023-07-22T08:22:16;18.70;65.30
72440;DHT22;60446;50.752;4.352;2023-07-22T08:24:44;18.60;66.50
72440;DHT22;60446;50.752;4.352;2023-07-22T08:27:15;18.70;67.00
72440;DHT22;60446;50.752;4.352;2023-07-22T08:29:42;18.80;66.00
72440;DHT22;60446;50.752;4.352;2023-07-22T08:32:10;18.80;66.20
72440;DHT22;60446;50.752;4.352;2023-07-22T08:34:37;18.90;65.50
72440;DHT22;60446;50.752;4.352;2023-07-22T08:37:04;19.10;66.30
72440;DHT22;60446;50.752;4.352;2023-07-22T08:39:32;19.20;64.60
72440;DHT22;60446;50.752;4.352;2023-07-22T08:42:03;19.40;65.30
72440;DHT22;60446;50.752;4.352;2023-07-22T08:44:32;19.20;63.60
72440;DHT22;60446;50.752;4.352;2023-07-22T08:47:03;19.20;65.30
72440;DHT22;60446;50.752;4.352;2023-07-22T08:49:32;19.20;64.70
72440;DHT22;60446;50.752;4.352;2023-07-22T08:52:01;19.30;64.90
72440;DHT22;60446;50.752;4.352;2023-07-22T08:54:28;19.20;64.50
72440;DHT22;60446;50.752;4.352;2023-07-22T08:56:55;19.20;64.40
72440;DHT22;60446;50.752;4.352;2023-07-22T08:59:24;19.20;62.70
72440;DHT22;60446;50.752;4.352;2023-07-22T09:01:52;19.20;62.70
72440;DHT22;60446;50.752;4.352;2023-07-22T09:04:20;19.30;61.90
72440;DHT22;60446;50.752;4.352;2023-07-22T09:06:49;19.40;62.30
72440;DHT22;60446;50.752;4.352;2023-07-22T09:09:17;19.40;62.00
72440;DHT22;60446;50.752;4.352;2023-07-22T09:11:45;19.60;62.10
72440;DHT22;60446;50.752;4.352;2023-07-22T09:14:15;19.60;62.60
72440;DHT22;60446;50.752;4.352;2023-07-22T09:17:01;19.60;59.80
72440;DHT22;60446;50.752;4.352;2023-07-22T09:19:30;19.60;60.80
72440;DHT22;60446;50.752;4.352;2023-07-22T09:21:58;19.60;59.80
72440;DHT22;60446;50.752;4.352;2023-07-22T09:24:26;19.60;59.50
72440;DHT22;60446;50.752;4.352;2023-07-22T09:26:55;19.40;57.90
72440;DHT22;60446;50.752;4.352;2023-07-22T09:29:33;19.40;58.90
72440;DHT22;60446;50.752;4.352;2023-07-22T09:32:01;19.20;59.20
72440;DHT22;60446;50.752;4.352;2023-07-22T09:34:31;19.20;58.30
72440;DHT22;60446;50.752;4.352;2023-07-22T09:36:59;19.40;59.90
72440;DHT22;60446;50.752;4.352;2023-07-22T09:39:30;19.60;59.60
72440;DHT22;60446;50.752;4.352;2023-07-22T09:41:58;19.80;58.40
72440;DHT22;60446;50.752;4.352;2023-07-22T09:44:31;19.90;58.50
72440;DHT22;60446;50.752;4.352;2023-07-22T09:47:07;20.10;57.80
72440;DHT22;60446;50.752;4.352;2023-07-22T09:49:40;20.10;56.30
72440;DHT22;60446;50.752;4.352;2023-07-22T09:52:10;20.20;59.10
72440;DHT22;60446;50.752;4.352;2023-07-22T09:54:47;20.20;55.10
72440;DHT22;60446;50.752;4.352;2023-07-22T09:57:16;20.20;55.40
72440;DHT22;60446;50.752;4.352;2023-07-22T09:59:43;20.20;56.90
72440;DHT22;60446;50.752;4.352;2023-07-22T10:02:11;20.20;56.00
72440;DHT22;60446;50.752;4.352;2023-07-22T10:04:39;20.30;54.90
72440;DHT22;60446;50.752;4.352;2023-07-22T10:07:07;20.40;54.70
72440;DHT22;60446;50.752;4.352;2023-07-22T10:09:37;20.50;55.30
72440;DHT22;60446;50.752;4.352;2023-07-22T10:12:05;20.70;54.40
72440;DHT22;60446;50.752;4.352;2023-07-22T10:14:34;20.70;53.40
72440;DHT22;60446;50.752;4.352;2023-07-22T10:17:05;20.80;52.50
72440;DHT22;60446;50.752;4.352;2023-07-22T10:19:33;20.90;52.20
72440;DHT22;60446;50.752;4.352;2023-07-22T10:22:02;21.00;52.60
72440;DHT22;60446;50.752;4.352;2023-07-22T10:24:29;21.10;49.70
72440;DHT22;60446;50.752;4.352;2023-07-22T10:26:58;21.20;51.40
72440;DHT22;60446;50.752;4.352;2023-07-22T10:29:25;21.30;49.40
72440;DHT22;60446;50.752;4.352;2023-07-22T10:31:54;21.00;49.10
72440;DHT22;60446;50.752;4.352;2023-07-22T10:34:23;20.90;51.00
72440;DHT22;60446;50.752;4.352;2023-07-22T10:36:50;20.90;50.20
72440;DHT22;60446;50.752;4.352;2023-07-22T10:39:28;20.90;50.00
72440;DHT22;60446;50.752;4.352;2023-07-22T10:42:02;20.90;50.70
72440;DHT22;60446;50.752;4.352;2023-07-22T10:44:41;20.90;50.20
72440;DHT22;60446;50.752;4.352;2023-07-22T10:47:08;20.90;50.70
72440;DHT22;60446;50.752;4.352;2023-07-22T10:49:49;20.90;51.10
72440;DHT22;60446;50.752;4.352;2023-07-22T10:52:45;21.10;50.40
72440;DHT22;60446;50.752;4.352;2023-07-22T10:55:17;21.10;50.30
72440;DHT22;60446;50.752;4.352;2023-07-22T10:57:50;21.10;50.10
72440;DHT22;60446;50.752;4.352;2023-07-22T11:00:22;21.20;51.90
72440;DHT22;60446;50.752;4.352;2023-07-22T11:03:09;21.10;51.70
72440;DHT22;60446;50.752;4.352;2023-07-22T11:05:48;21.10;51.50
72440;DHT22;60446;50.752;4.352;2023-07-22T11:08:39;21.20;52.20
72440;DHT22;60446;50.752;4.352;2023-07-22T11:11:07;21.20;50.80
72440;DHT22;60446;50.752;4.352;2023-07-22T11:13:37;21.20;50.50
72440;DHT22;60446;50.752;4.352;2023-07-22T11:16:10;21.10;51.60
72440;DHT22;60446;50.752;4.352;2023-07-22T11:18:40;21.10;51.50
72440;DHT22;60446;50.752;4.352;2023-07-22T11:21:10;21.40;52.00
72440;DHT22;60446;50.752;4.352;2023-07-22T11:23:38;21.80;51.20
72440;DHT22;60446;50.752;4.352;2023-07-22T11:26:05;22.10;52.60
72440;DHT22;60446;50.752;4.352;2023-07-22T11:28:33;22.50;49.30
72440;DHT22;60446;50.752;4.352;2023-07-22T11:31:01;22.80;48.60
72440;DHT22;60446;50.752;4.352;2023-07-22T11:33:38;23.10;47.40
72440;DHT22;60446;50.752;4.352;2023-07-22T11:36:06;23.20;47.20
72440;DHT22;60446;50.752;4.352;2023-07-22T11:38:33;23.10;46.30
72440;DHT22;60446;50.752;4.352;2023-07-22T11:41:01;23.00;47.50
72440;DHT22;60446;50.752;4.352;2023-07-22T11:43:28;23.00;48.50
72440;DHT22;60446;50.752;4.352;2023-07-22T11:45:56;23.20;47.80
72440;DHT22;60446;50.752;4.352;2023-07-22T11:48:23;23.20;46.90
72440;DHT22;60446;50.752;4.352;2023-07-22T11:50:50;23.10;47.40
72440;DHT22;60446;50.752;4.352;2023-07-22T11:53:18;22.90;46.30
72440;DHT22;60446;50.752;4.352;2023-07-22T11:55:45;22.90;48.50
72440;DHT22;60446;50.752;4.352;2023-07-22T11:58:13;23.00;46.70
72440;DHT22;60446;50.752;4.352;2023-07-22T12:00:44;23.30;47.50
72440;DHT22;60446;50.752;4.352;2023-07-22T12:03:33;23.30;44.80
72440;DHT22;60446;50.752;4.352;2023-07-22T12:06:05;23.30;44.90
72440;DHT22;60446;50.752;4.352;2023-07-22T12:08:33;23.10;45.10
72440;DHT22;60446;50.752;4.352;2023-07-22T12:11:02;23.00;46.80
72440;DHT22;60446;50.752;4.352;2023-07-22T12:13:36;23.00;48.00
72440;DHT22;60446;50.752;4.352;2023-07-22T12:16:05;23.00;46.70
72440;DHT22;60446;50.752;4.352;2023-07-22T12:18:44;22.90;45.30
72440;DHT22;60446;50.752;4.352;2023-07-22T12:21:12;22.70;45.70
72440;DHT22;60446;50.752;4.352;2023-07-22T12:23:41;22.50;46.40
72440;DHT22;60446;50.752;4.352;2023-07-22T12:26:09;22.60;47.70
72440;DHT22;60446;50.752;4.352;2023-07-22T12:28:36;22.70;45.90
72440;DHT22;60446;50.752;4.352;2023-07-22T12:31:03;22.50;46.90
72440;DHT22;60446;50.752;4.352;2023-07-22T12:33:31;22.60;46.60
72440;DHT22;60446;50.752;4.352;2023-07-22T12:35:58;22.80;46.40
72440;DHT22;60446;50.752;4.352;2023-07-22T12:38:25;23.00;45.10
72440;DHT22;60446;50.752;4.352;2023-07-22T12:40:53;22.90;44.60
72440;DHT22;60446;50.752;4.352;2023-07-22T12:43:20;22.70;45.40
72440;DHT22;60446;50.752;4.352;2023-07-22T12:45:47;22.70;46.80
72440;DHT22;60446;50.752;4.352;2023-07-22T12:48:14;22.80;45.30
72440;DHT22;60446;50.752;4.352;2023-07-22T12:50:45;23.10;44.60
72440;DHT22;60446;50.752;4.352;2023-07-22T12:53:14;23.30;45.90
72440;DHT22;60446;50.752;4.352;2023-07-22T12:55:41;23.60;45.00
72440;DHT22;60446;50.752;4.352;2023-07-22T12:58:08;23.80;44.20
72440;DHT22;60446;50.752;4.352;2023-07-22T13:00:36;23.90;44.90
72440;DHT22;60446;50.752;4.352;2023-07-22T13:03:03;24.10;44.90
72440;DHT22;60446;50.752;4.352;2023-07-22T13:05:31;24.20;43.40
72440;DHT22;60446;50.752;4.352;2023-07-22T13:07:58;24.40;43.60
72440;DHT22;60446;50.752;4.352;2023-07-22T13:10:31;24.30;41.70
72440;DHT22;60446;50.752;4.352;2023-07-22T13:13:00;24.10;42.10
72440;DHT22;60446;50.752;4.352;2023-07-22T13:15:27;23.70;42.70
72440;DHT22;60446;50.752;4.352;2023-07-22T13:17:54;23.50;42.90
72440;DHT22;60446;50.752;4.352;2023-07-22T13:20:21;23.50;44.80
72440;DHT22;60446;50.752;4.352;2023-07-22T13:22:49;23.50;43.90
72440;DHT22;60446;50.752;4.352;2023-07-22T13:25:16;23.50;43.20
72440;DHT22;60446;50.752;4.352;2023-07-22T13:27:43;23.50;44.10
72440;DHT22;60446;50.752;4.352;2023-07-22T13:30:10;23.60;44.20
72440;DHT22;60446;50.752;4.352;2023-07-22T13:32:38;23.60;42.90
72440;DHT22;60446;50.752;4.352;2023-07-22T13:35:07;23.80;43.40
72440;DHT22;60446;50.752;4.352;2023-07-22T13:37:35;24.10;44.90
72440;DHT22;60446;50.752;4.352;2023-07-22T13:40:03;24.40;45.20
72440;DHT22;60446;50.752;4.352;2023-07-22T13:42:37;24.40;43.60
72440;DHT22;60446;50.752;4.352;2023-07-22T13:45:05;24.50;43.20
72440;DHT22;60446;50.752;4.352;2023-07-22T13:47:33;24.20;43.20
72440;DHT22;60446;50.752;4.352;2023-07-22T13:50:00;23.80;44.70
72440;DHT22;60446;50.752;4.352;2023-07-22T13:52:27;23.60;44.50
72440;DHT22;60446;50.752;4.352;2023-07-22T13:54:54;23.30;45.10
72440;DHT22;60446;50.752;4.352;2023-07-22T13:57:21;23.10;45.20
72440;DHT22;60446;50.752;4.352;2023-07-22T13:59:49;22.90;46.40
72440;DHT22;60446;50.752;4.352;2023-07-22T14:02:16;22.60;46.60
72440;DHT22;60446;50.752;4.352;2023-07-22T14:04:43;22.40;46.90
72440;DHT22;60446;50.752;4.352;2023-07-22T14:07:11;22.20;47.60
72440;DHT22;60446;50.752;4.352;2023-07-22T14:09:38;22.00;46.60
72440;DHT22;60446;50.752;4.352;2023-07-22T14:12:05;21.80;47.30
72440;DHT22;60446;50.752;4.352;2023-07-22T14:14:33;21.70;47.50
72440;DHT22;60446;50.752;4.352;2023-07-22T14:17:00;21.60;47.80
72440;DHT22;60446;50.752;4.352;2023-07-22T14:19:27;21.60;49.00
72440;DHT22;60446;50.752;4.352;2023-07-22T14:21:55;21.70;48.70
72440;DHT22;60446;50.752;4.352;2023-07-22T14:24:22;21.70;47.50
72440;DHT22;60446;50.752;4.352;2023-07-22T14:26:49;21.80;47.80
72440;DHT22;60446;50.752;4.352;2023-07-22T14:29:16;21.90;48.20
72440;DHT22;60446;50.752;4.352;2023-07-22T14:31:43;21.90;48.20
72440;DHT22;60446;50.752;4.352;2023-07-22T14:34:11;22.00;48.10
72440;DHT22;60446;50.752;4.352;2023-07-22T14:36:38;22.20;47.30
72440;DHT22;60446;50.752;4.352;2023-07-22T14:39:05;22.60;47.50
72440;DHT22;60446;50.752;4.352;2023-07-22T14:41:32;22.90;47.50
72440;DHT22;60446;50.752;4.352;2023-07-22T14:44:00;23.20;45.30
72440;DHT22;60446;50.752;4.352;2023-07-22T14:46:27;23.60;45.30
72440;DHT22;60446;50.752;4.352;2023-07-22T14:48:55;23.70;46.20
72440;DHT22;60446;50.752;4.352;2023-07-22T14:51:22;23.80;45.30
72440;DHT22;60446;50.752;4.352;2023-07-22T14:53:49;24.00;46.10
72440;DHT22;60446;50.752;4.352;2023-07-22T14:56:16;24.20;45.20
72440;DHT22;60446;50.752;4.352;2023-07-22T14:58:44;24.30;45.80
72440;DHT22;60446;50.752;4.352;2023-07-22T15:01:11;24.30;46.10
72440;DHT22;60446;50.752;4.352;2023-07-22T15:03:38;24.20;45.60
72440;DHT22;60446;50.752;4.352;2023-07-22T15:06:05;24.30;45.70
72440;DHT22;60446;50.752;4.352;2023-07-22T15:08:33;24.70;46.10
72440;DHT22;60446;50.752;4.352;2023-07-22T15:11:00;25.00;45.00
72440;DHT22;60446;50.752;4.352;2023-07-22T15:13:28;25.40;45.90
72440;DHT22;60446;50.752;4.352;2023-07-22T15:15:56;25.40;44.60
72440;DHT22;60446;50.752;4.352;2023-07-22T15:18:23;25.20;44.90
72440;DHT22;60446;50.752;4.352;2023-07-22T15:20:54;25.00;44.80
72440;DHT22;60446;50.752;4.352;2023-07-22T15:23:21;24.90;45.30
72440;DHT22;60446;50.752;4.352;2023-07-22T15:25:51;24.60;44.30
72440;DHT22;60446;50.752;4.352;2023-07-22T15:28:18;24.30;45.80
72440;DHT22;60446;50.752;4.352;2023-07-22T15:30:46;23.90;46.30
72440;DHT22;60446;50.752;4.352;2023-07-22T15:33:14;23.60;46.30
72440;DHT22;60446;50.752;4.352;2023-07-22T15:35:41;23.20;46.70
72440;DHT22;60446;50.752;4.352;2023-07-22T15:38:08;23.00;47.10